Time;durP1;ratioP1;P1;durP2;ratioP2;P2;SDS_P1;SDS_P2;PMS_P1;PMS_P2;Temp;Humidity;BMP_temperature;BMP_pressure;BME280_temperature;BME280_humidity;BME280_pressure;Samples;Min_cycle;Max_cycle;Signal;HPM_P1;HPM_P2
2021/08/05 00:01:36;;;;;;;10.38;4.35;;;;;;;36.97;20.08;94337.25;5035064;28;20375;-62
2021/08/05 00:04:03;;;;;;;8.85;4.30;;;;;;;37.03;19.99;94346.31;5034968;28;20053;-64
2021/08/05 00:06:30;;;;;;;9.10;4.20;;;;;;;36.66;20.49;94345.56;5033923;28;20053;-60
2021/08/05 00:08:57;;;;;;;6.88;3.95;;;;;;;37.03;19.84;94346.31;5017460;28;20053;-57
2021/08/05 00:11:24;;;;;;;9.45;4.47;;;;;;;36.81;20.04;94349.22;5034068;28;20045;-63
2021/08/05 00:13:51;;;;;;;8.88;4.40;;;;;;;37.01;19.54;94337.84;5034736;28;20045;-66
2021/08/05 00:16:18;;;;;;;7.15;3.85;;;;;;;37.02;19.89;94333.91;5034245;28;20038;-66
2021/08/05 00:18:46;;;;;;;11.52;4.53;;;;;;;36.78;19.93;94330.28;5034225;28;20045;-61
2021/08/05 00:21:18;;;;;;;7.60;4.70;;;;;;;36.85;19.88;94346.31;5033779;28;20049;-63
2021/08/05 00:23:45;;;;;;;7.45;4.10;;;;;;;36.97;19.61;94346.16;5033985;28;20451;-62
2021/08/05 00:26:13;;;;;;;7.22;3.83;;;;;;;36.80;20.01;94346.94;5034409;28;20045;-66
2021/08/05 00:28:41;;;;;;;9.50;4.30;;;;;;;36.79;19.94;94348.16;5033632;28;20041;-63
2021/08/05 00:31:09;;;;;;;9.32;4.75;;;;;;;36.72;20.33;94349.19;5034497;28;20440;-66
2021/08/05 00:33:37;;;;;;;7.05;4.50;;;;;;;36.69;20.31;94347.38;5034495;28;20048;-62
2021/08/05 00:36:04;;;;;;;6.70;4.05;;;;;;;36.71;20.21;94353.91;5016450;28;20052;-64
2021/08/05 00:38:33;;;;;;;7.72;4.00;;;;;;;36.77;20.53;94350.56;5016654;28;20049;-67
2021/08/05 00:41:00;;;;;;;9.73;4.38;;;;;;;36.67;20.49;94347.81;5016150;28;20056;-66
2021/08/05 00:43:27;;;;;;;5.53;4.05;;;;;;;36.60;20.03;94348.13;5034362;28;20052;-66
2021/08/05 00:45:54;;;;;;;8.45;3.83;;;;;;;36.55;20.05;94346.03;5016979;28;20049;-63
2021/08/05 00:48:22;;;;;;;9.77;4.20;;;;;;;36.54;20.41;94341.78;5034197;28;20056;-65
2021/08/05 00:50:49;;;;;;;6.78;4.18;;;;;;;36.43;20.44;94355.09;5034884;28;20365;-65
2021/08/05 00:53:17;;;;;;;7.45;4.25;;;;;;;36.28;20.53;94348.72;5006231;28;20498;-65
2021/08/05 00:55:45;;;;;;;7.55;4.15;;;;;;;36.33;20.24;94351.59;5022753;28;20045;-65
2021/08/05 00:58:12;;;;;;;8.70;4.10;;;;;;;36.63;19.98;94349.19;5023656;28;20060;-66
2021/08/05 01:00:42;;;;;;;6.40;4.15;;;;;;;36.44;20.06;94349.22;5023068;28;20049;-57
2021/08/05 01:03:20;;;;;;;6.15;3.80;;;;;;;36.18;20.73;94350.69;5007049;28;20049;-66
2021/08/05 01:05:55;;;;;;;6.88;4.20;;;;;;;36.16;20.57;94347.63;5023151;28;20049;-66
2021/08/05 01:08:25;;;;;;;5.68;3.67;;;;;;;36.29;20.62;94350.97;5023483;28;20467;-66
2021/08/05 01:11:02;;;;;;;8.35;4.65;;;;;;;36.50;20.18;94349.34;5022998;28;20049;-61
2021/08/05 01:13:49;;;;;;;9.90;4.68;;;;;;;36.44;20.65;94340.28;5039694;28;20363;-62
2021/08/05 01:16:17;;;;;;;7.18;4.80;;;;;;;36.12;20.59;94347.78;5040756;28;20041;-57
2021/08/05 01:18:46;;;;;;;7.93;3.90;;;;;;;36.12;20.63;94352.47;5022650;28;20041;-59
2021/08/05 01:21:39;;;;;;;7.00;3.78;;;;;;;36.10;20.82;94338.56;5022689;28;20049;-66
2021/08/05 01:24:08;;;;;;;6.88;4.20;;;;;;;36.26;20.54;94345.69;5040260;28;20053;-66
2021/08/05 01:26:47;;;;;;;7.43;4.38;;;;;;;36.06;21.07;94338.72;5022988;28;20056;-66
2021/08/05 01:29:15;;;;;;;8.93;4.15;;;;;;;35.92;20.77;94335.81;5039888;28;20384;-66
2021/08/05 01:31:43;;;;;;;8.57;4.07;;;;;;;35.87;20.83;94328.25;5022648;28;20464;-59
2021/08/05 01:34:12;;;;;;;6.15;4.10;;;;;;;36.09;20.79;94332.34;5005303;28;20080;-59
2021/08/05 01:36:41;;;;;;;5.15;3.83;;;;;;;35.97;20.90;94330.53;5023005;28;20049;-61
2021/08/05 01:39:08;;;;;;;8.25;3.90;;;;;;;36.00;20.55;94318.75;5022011;28;20049;-64
2021/08/05 01:41:36;;;;;;;7.20;3.90;;;;;;;36.22;20.55;94320.59;5006284;28;20444;-67
2021/08/05 01:44:09;;;;;;;7.25;3.55;;;;;;;36.05;20.51;94320.88;5006541;28;20045;-64
2021/08/05 01:46:37;;;;;;;6.55;3.83;;;;;;;36.05;20.83;94310.00;5023056;28;20436;-66
2021/08/05 01:49:05;;;;;;;4.95;3.67;;;;;;;36.13;20.51;94316.66;5022211;28;20064;-65
2021/08/05 01:51:33;;;;;;;5.75;3.65;;;;;;;36.06;20.75;94310.75;5021798;28;20436;-67
2021/08/05 01:54:01;;;;;;;9.13;4.10;;;;;;;36.03;20.55;94300.78;5021612;28;20060;-67
2021/08/05 01:56:28;;;;;;;7.47;4.00;;;;;;;35.94;21.22;94306.97;5039520;28;20042;-62
2021/08/05 01:58:57;;;;;;;6.10;3.67;;;;;;;35.89;21.10;94302.09;5022734;28;20387;-67
2021/08/05 02:01:24;;;;;;;6.53;3.90;;;;;;;35.79;21.26;94295.13;5022498;28;20049;-64
2021/08/05 02:04:07;;;;;;;8.63;4.13;;;;;;;36.00;20.74;94296.25;5035809;28;20370;-64
2021/08/05 02:06:41;;;;;;;9.70;4.60;;;;;;;35.84;21.08;94294.56;5037237;28;20058;-58
2021/08/05 02:09:29;;;;;;;7.10;4.00;;;;;;;35.50;21.42;94293.53;5036427;28;20049;-60
2021/08/05 02:11:58;;;;;;;9.05;4.18;;;;;;;35.84;21.31;94306.19;5018306;28;20052;-64
2021/08/05 02:14:28;;;;;;;7.07;3.85;;;;;;;35.90;21.13;94309.06;5019073;28;20364;-59
2021/08/05 02:16:56;;;;;;;6.60;3.85;;;;;;;35.70;21.45;94301.31;5018716;28;20041;-66
2021/08/05 02:19:25;;;;;;;6.65;4.10;;;;;;;35.78;21.22;94299.03;5018383;28;20056;-59
2021/08/05 02:21:52;;;;;;;7.35;4.35;;;;;;;35.67;21.17;94296.00;5018632;28;20054;-63
2021/08/05 02:24:22;;;;;;;6.95;4.00;;;;;;;35.71;21.35;94300.09;5035846;28;20064;-59
2021/08/05 02:26:50;;;;;;;8.50;4.18;;;;;;;35.40;21.79;94305.59;5002573;28;20053;-57
2021/08/05 02:29:18;;;;;;;7.75;4.18;;;;;;;35.41;21.67;94296.25;5019333;28;20045;-59
2021/08/05 02:31:46;;;;;;;9.60;3.60;;;;;;;35.43;21.89;94304.69;5036312;28;20049;-61
2021/08/05 02:34:14;;;;;;;8.43;4.07;;;;;;;35.65;21.55;94301.13;5019140;28;20049;-61
2021/08/05 02:36:41;;;;;;;8.32;4.30;;;;;;;35.59;21.19;94294.75;5019344;28;20052;-61
2021/08/05 02:39:08;;;;;;;6.68;3.90;;;;;;;35.58;21.60;94285.09;5002733;28;20352;-64
2021/08/05 02:41:36;;;;;;;9.60;4.53;;;;;;;35.60;21.45;94299.00;5018820;28;20041;-60
2021/08/05 02:44:03;;;;;;;7.53;4.20;;;;;;;35.52;21.43;94293.84;5002519;28;20045;-63
2021/08/05 02:46:31;;;;;;;7.80;4.20;;;;;;;35.46;21.58;94303.81;5002141;28;20056;-59
2021/08/05 02:48:59;;;;;;;10.65;4.03;;;;;;;35.62;21.54;94297.34;5018545;28;20042;-66
2021/08/05 02:51:27;;;;;;;9.50;4.55;;;;;;;35.65;21.54;94298.41;5017882;28;20063;-65
2021/08/05 02:53:55;;;;;;;8.00;4.25;;;;;;;35.74;21.36;94296.47;5035847;28;20053;-66
2021/08/05 02:56:23;;;;;;;7.80;4.40;;;;;;;35.50;21.44;94298.22;5018765;28;20049;-64
2021/08/05 02:58:50;;;;;;;8.50;4.95;;;;;;;35.58;21.50;94309.56;5018788;28;20046;-64
2021/08/05 03:01:20;;;;;;;8.05;4.70;;;;;;;35.66;21.68;94294.50;5018702;28;20078;-64
2021/08/05 03:03:51;;;;;;;12.15;4.43;;;;;;;35.56;21.58;94306.53;5035928;28;20042;-63
2021/08/05 03:06:25;;;;;;;8.15;4.40;;;;;;;35.62;21.71;94300.06;5035516;28;20053;-64
2021/08/05 03:08:53;;;;;;;7.72;4.28;;;;;;;35.60;21.76;94291.59;5036268;28;20049;-63
2021/08/05 03:11:20;;;;;;;6.35;4.35;;;;;;;35.53;21.58;94300.03;5035773;28;20057;-62
2021/08/05 03:13:47;;;;;;;11.48;4.25;;;;;;;35.58;21.73;94285.09;5028384;28;20042;-61
2021/08/05 03:16:16;;;;;;;6.32;3.95;;;;;;;35.21;22.33;94293.88;5015992;28;20045;-67
2021/08/05 03:18:43;;;;;;;8.63;4.80;;;;;;;35.44;21.89;94281.75;5022920;28;20046;-64
2021/08/05 03:21:10;;;;;;;11.32;4.75;;;;;;;35.48;21.95;94276.19;5034754;28;20045;-62
2021/08/05 03:23:38;;;;;;;9.95;4.70;;;;;;;35.49;21.81;94281.16;5035332;28;20049;-57
2021/08/05 03:26:06;;;;;;;7.15;4.65;;;;;;;35.34;21.94;94280.19;5035758;28;20057;-59
2021/08/05 03:28:33;;;;;;;7.97;4.47;;;;;;;35.28;21.80;94276.53;5035415;28;20064;-62
2021/08/05 03:31:00;;;;;;;8.35;4.80;;;;;;;35.43;21.90;94276.78;5034788;28;20048;-61
2021/08/05 03:33:28;;;;;;;10.75;5.22;;;;;;;35.27;21.96;94279.69;5035122;28;20052;-60
2021/08/05 03:35:55;;;;;;;13.40;5.53;;;;;;;35.29;21.93;94275.31;5034876;28;20053;-62
2021/08/05 03:38:22;;;;;;;10.48;5.07;;;;;;;35.25;22.18;94274.72;5035214;28;20045;-65
2021/08/05 03:40:50;;;;;;;11.55;5.50;;;;;;;35.08;22.18;94270.72;5035362;28;20041;-67
2021/08/05 03:43:17;;;;;;;10.82;4.65;;;;;;;35.05;22.00;94274.31;5035382;28;20064;-58
2021/08/05 03:45:44;;;;;;;8.90;5.13;;;;;;;35.11;21.84;94275.25;5035239;28;20352;-61
2021/08/05 03:48:11;;;;;;;10.98;4.75;;;;;;;35.30;21.75;94273.38;5034934;28;20507;-64
2021/08/05 03:50:38;;;;;;;8.25;4.65;;;;;;;35.06;22.07;94275.84;5035168;28;20053;-66
2021/08/05 03:53:05;;;;;;;8.57;4.53;;;;;;;35.10;21.82;94260.16;5034780;28;20137;-64
2021/08/05 03:55:32;;;;;;;9.13;5.05;;;;;;;35.21;21.80;94265.94;5034370;28;20367;-65
2021/08/05 03:57:59;;;;;;;11.52;4.93;;;;;;;35.20;22.04;94265.19;5035333;28;20048;-59
2021/08/05 04:00:26;;;;;;;13.15;5.05;;;;;;;35.33;22.08;94254.19;5034092;28;20049;-66
2021/08/05 04:02:53;;;;;;;7.60;4.38;;;;;;;35.22;22.00;94262.03;5034861;28;20053;-61
2021/08/05 04:05:21;;;;;;;8.23;4.90;;;;;;;35.28;21.87;94249.34;5033933;28;20061;-65
2021/08/05 04:07:48;;;;;;;13.43;5.43;;;;;;;35.14;22.31;94260.78;5034347;28;20052;-61
2021/08/05 04:10:15;;;;;;;9.70;4.40;;;;;;;35.29;22.18;94256.31;5033476;28;20057;-59
2021/08/05 04:12:42;;;;;;;14.77;5.15;;;;;;;35.43;22.10;94258.50;5033119;28;20045;-57
2021/08/05 04:15:10;;;;;;;8.00;4.63;;;;;;;35.44;22.33;94268.16;5034400;28;20053;-60
2021/08/05 04:17:38;;;;;;;9.75;5.10;;;;;;;35.48;22.37;94252.47;5051526;28;20324;-63
2021/08/05 04:20:06;;;;;;;9.98;5.00;;;;;;;35.79;21.75;94265.22;5037184;28;20049;-75
2021/08/05 04:22:36;;;;;;;9.38;4.97;;;;;;;35.28;22.60;94262.19;5033518;28;20041;-57
2021/08/05 04:25:05;;;;;;;7.95;4.53;;;;;;;34.72;23.34;94258.44;5033811;28;20056;-57
2021/08/05 04:27:32;;;;;;;8.48;4.82;;;;;;;34.46;24.16;94262.50;5017138;28;20357;-56
2021/08/05 04:29:59;;;;;;;7.30;4.25;;;;;;;34.53;24.46;94256.81;5032982;28;20049;-50
2021/08/05 04:32:26;;;;;;;10.60;5.40;;;;;;;34.66;24.07;94254.03;5033945;28;20060;-53
2021/08/05 04:34:53;;;;;;;10.68;5.10;;;;;;;34.89;23.18;94257.06;5034547;28;20440;-52
2021/08/05 04:37:21;;;;;;;8.60;4.90;;;;;;;35.08;23.01;94262.56;5034261;28;20048;-54
2021/08/05 04:39:48;;;;;;;8.25;5.03;;;;;;;35.14;23.45;94249.94;5033525;28;20048;-55
2021/08/05 04:42:15;;;;;;;9.30;4.40;;;;;;;35.11;24.16;94250.78;5032795;28;20046;-55
2021/08/05 04:44:42;;;;;;;7.70;4.60;;;;;;;35.10;23.37;94255.47;5034494;28;20056;-54
2021/08/05 04:47:09;;;;;;;8.05;4.70;;;;;;;35.12;23.99;94257.75;5034537;28;20053;-54
2021/08/05 04:49:36;;;;;;;10.73;4.38;;;;;;;35.63;23.48;94251.88;5034328;28;20049;-56
2021/08/05 04:52:05;;;;;;;10.80;4.95;;;;;;;36.48;22.69;94253.78;5030811;28;20049;-58
2021/08/05 04:54:34;;;;;;;7.20;4.55;;;;;;;36.44;22.86;94255.91;5014498;28;20045;-56
2021/08/05 04:57:04;;;;;;;9.05;4.13;;;;;;;37.44;22.08;94254.88;5013487;28;20042;-54
2021/08/05 04:59:31;;;;;;;8.77;4.80;;;;;;;36.14;22.59;94252.88;5014561;28;20474;-53
2021/08/05 05:01:58;;;;;;;7.55;4.50;;;;;;;36.09;23.07;94250.75;5027713;28;20056;-56
2021/08/05 05:04:26;;;;;;;7.03;4.38;;;;;;;35.95;22.51;94245.19;5033416;28;20045;-55
2021/08/05 05:06:53;;;;;;;8.32;4.50;;;;;;;35.86;22.85;94248.63;5033214;28;20049;-53
2021/08/05 05:09:20;;;;;;;10.48;5.07;;;;;;;35.95;21.57;94245.94;5034239;28;20049;-55
2021/08/05 05:11:47;;;;;;;10.00;4.97;;;;;;;36.26;21.54;94251.22;5033032;28;20045;-53
2021/08/05 05:14:14;;;;;;;11.20;4.70;;;;;;;36.14;21.36;94250.16;5033475;28;20083;-53
2021/08/05 05:16:41;;;;;;;7.18;4.47;;;;;;;36.33;21.22;94242.75;5033238;28;20049;-56
2021/08/05 05:19:08;;;;;;;9.30;5.00;;;;;;;36.28;21.27;94234.44;5033542;28;20057;-54
2021/08/05 05:21:35;;;;;;;7.13;5.07;;;;;;;36.40;21.37;94238.97;5032033;28;20479;-57
2021/08/05 05:24:02;;;;;;;8.38;4.22;;;;;;;36.53;21.16;94241.53;5033920;28;20053;-56
2021/08/05 05:26:29;;;;;;;7.20;4.35;;;;;;;36.48;21.42;94237.47;5034197;28;20045;-54
2021/08/05 05:28:56;;;;;;;10.38;4.15;;;;;;;36.62;21.07;94231.38;5034125;28;20077;-55
2021/08/05 05:31:23;;;;;;;8.50;4.60;;;;;;;36.57;21.38;94229.28;5033502;28;20048;-54
2021/08/05 05:33:50;;;;;;;10.52;4.60;;;;;;;36.78;21.15;94238.47;5033096;28;20045;-56
2021/08/05 05:36:17;;;;;;;10.50;4.80;;;;;;;36.90;21.11;94234.78;5034032;28;20049;-55
2021/08/05 05:38:45;;;;;;;9.15;4.95;;;;;;;36.89;20.87;94236.00;5023809;28;20060;-53
2021/08/05 05:41:12;;;;;;;16.25;4.93;;;;;;;36.71;21.12;94228.63;5024848;28;20060;-55
2021/08/05 05:43:39;;;;;;;11.00;4.43;;;;;;;37.08;20.94;94228.53;5037217;28;20452;-54
2021/08/05 05:46:06;;;;;;;8.65;4.57;;;;;;;36.83;21.07;94228.94;5037790;28;20329;-52
2021/08/05 05:48:33;;;;;;;9.82;5.18;;;;;;;37.09;20.70;94230.03;5037459;28;20061;-56
2021/08/05 05:51:00;;;;;;;10.02;4.88;;;;;;;37.44;20.23;94224.13;5036540;28;20427;-53
2021/08/05 05:53:27;;;;;;;8.43;4.75;;;;;;;37.31;20.41;94224.38;5035459;28;20049;-52
2021/08/05 05:55:54;;;;;;;9.30;5.10;;;;;;;37.61;20.12;94223.28;5036401;28;20460;-54
2021/08/05 05:58:22;;;;;;;9.73;4.55;;;;;;;37.69;20.51;94215.50;5037225;28;20060;-53
2021/08/05 06:00:50;;;;;;;9.13;4.82;;;;;;;38.06;19.62;94210.56;5037103;28;20322;-54
2021/08/05 06:03:18;;;;;;;10.40;4.85;;;;;;;37.80;20.00;94210.31;5036130;28;20049;-52
2021/08/05 06:05:45;;;;;;;8.50;5.25;;;;;;;37.97;19.78;94203.19;5021513;28;20467;-55
2021/08/05 06:08:13;;;;;;;7.80;4.97;;;;;;;38.43;19.30;94199.31;5016421;28;20479;-54
2021/08/05 06:10:41;;;;;;;9.45;4.82;;;;;;;38.18;20.02;94192.44;5019220;28;20057;-56
2021/08/05 06:13:08;;;;;;;8.90;5.20;;;;;;;38.14;20.00;94200.03;5036934;28;20060;-53
2021/08/05 06:15:35;;;;;;;8.63;5.47;;;;;;;38.15;20.43;94185.16;5037156;28;20579;-52
2021/08/05 06:18:04;;;;;;;13.80;5.32;;;;;;;38.33;20.24;94185.03;5036076;28;20321;-52
2021/08/05 06:20:31;;;;;;;9.68;5.28;;;;;;;38.21;19.98;94189.50;5035958;28;20372;-53
2021/08/05 06:22:58;;;;;;;9.57;5.63;;;;;;;38.39;20.15;94194.06;5036080;28;20372;-53
2021/08/05 06:25:26;;;;;;;7.32;5.07;;;;;;;38.24;20.53;94187.81;5036967;28;20381;-53
2021/08/05 06:27:53;;;;;;;9.63;6.05;;;;;;;38.64;20.27;94181.09;5036687;28;20060;-53
2021/08/05 06:30:20;;;;;;;10.05;5.57;;;;;;;38.53;20.34;94179.66;5032253;28;20045;-52
2021/08/05 06:32:50;;;;;;;9.60;5.93;;;;;;;38.89;20.00;94175.03;5035432;28;20049;-55
2021/08/05 06:35:17;;;;;;;8.98;6.30;;;;;;;38.67;20.26;94177.41;5036523;28;20079;-57
2021/08/05 06:37:45;;;;;;;15.85;6.82;;;;;;;38.95;20.09;94167.66;5035594;28;20041;-55
2021/08/05 06:40:12;;;;;;;9.45;6.65;;;;;;;38.92;19.91;94174.06;5036526;28;20269;-52
2021/08/05 06:42:39;;;;;;;10.30;6.45;;;;;;;39.02;19.94;94161.78;5023279;28;20056;-56
2021/08/05 06:45:09;;;;;;;10.52;6.00;;;;;;;39.26;19.97;94163.63;5033947;28;20467;-52
2021/08/05 06:47:46;;;;;;;11.77;6.80;;;;;;;39.15;19.87;94164.25;5036676;28;20459;-54
2021/08/05 06:50:14;;;;;;;10.77;6.38;;;;;;;39.43;19.91;94159.91;5034995;28;20056;-54
2021/08/05 06:52:41;;;;;;;9.32;6.32;;;;;;;39.51;20.02;94164.97;5034737;28;20049;-52
2021/08/05 06:55:08;;;;;;;13.30;6.70;;;;;;;39.52;19.72;94152.81;5035769;28;20363;-52
2021/08/05 06:57:35;;;;;;;10.40;5.90;;;;;;;39.81;19.27;94154.63;5019455;28;20037;-55
2021/08/05 07:00:03;;;;;;;10.70;5.90;;;;;;;40.28;19.02;94154.16;5024772;28;20053;-55
2021/08/05 07:02:31;;;;;;;10.57;6.43;;;;;;;39.92;19.46;94147.31;5035948;28;20045;-54
2021/08/05 07:05:02;;;;;;;10.70;5.93;;;;;;;40.80;18.43;94150.59;5033093;28;20050;-55
2021/08/05 07:07:30;;;;;;;10.27;6.53;;;;;;;40.59;18.95;94149.94;5035818;28;20079;-57
2021/08/05 07:09:58;;;;;;;10.05;6.20;;;;;;;41.31;18.20;94149.72;5033968;28;20421;-54
2021/08/05 07:12:25;;;;;;;12.43;6.72;;;;;;;40.80;18.55;94151.38;5015865;28;20045;-53
2021/08/05 07:14:52;;;;;;;10.15;6.38;;;;;;;41.05;18.26;94160.03;5035289;28;20064;-53
2021/08/05 07:17:19;;;;;;;11.57;6.53;;;;;;;41.16;18.62;94154.63;5036116;28;20042;-57
2021/08/05 07:19:47;;;;;;;13.60;6.85;;;;;;;41.10;18.52;94151.06;5035668;28;20053;-54
2021/08/05 07:22:14;;;;;;;14.07;6.65;;;;;;;41.73;17.53;94156.41;5031766;28;20045;-54
2021/08/05 07:24:41;;;;;;;12.25;6.05;;;;;;;41.81;17.42;94146.47;5028590;28;20337;-54
2021/08/05 07:27:08;;;;;;;9.55;6.88;;;;;;;41.43;18.28;94140.31;5035766;28;20451;-54
2021/08/05 07:29:36;;;;;;;12.70;7.38;;;;;;;41.22;18.86;94147.16;5035478;28;20045;-54
2021/08/05 07:32:04;;;;;;;10.35;7.13;;;;;;;41.94;17.53;94137.78;5035277;28;20053;-53
2021/08/05 07:34:33;;;;;;;14.75;7.40;;;;;;;41.49;18.72;94138.34;5034598;28;20053;-53
2021/08/05 07:37:00;;;;;;;13.18;7.22;;;;;;;41.45;18.50;94151.56;5035585;28;20057;-53
2021/08/05 07:39:28;;;;;;;11.07;7.40;;;;;;;41.32;18.70;94132.03;5035180;28;20041;-53
2021/08/05 07:41:55;;;;;;;11.30;7.25;;;;;;;41.72;18.30;94144.69;5034262;28;20057;-55
2021/08/05 07:44:22;;;;;;;12.98;6.97;;;;;;;42.05;18.39;94130.31;5035109;28;20064;-54
2021/08/05 07:46:49;;;;;;;12.07;6.95;;;;;;;41.65;18.81;94131.47;5034931;28;20471;-51
2021/08/05 07:49:17;;;;;;;13.73;7.22;;;;;;;41.74;18.76;94116.75;5034108;28;20045;-54
2021/08/05 07:51:44;;;;;;;9.48;7.20;;;;;;;41.95;18.52;94122.81;5034362;28;20052;-53
2021/08/05 07:54:11;;;;;;;10.68;7.45;;;;;;;42.24;17.80;94127.13;5034356;28;20053;-55
2021/08/05 07:56:38;;;;;;;14.07;7.05;;;;;;;41.74;18.99;94127.75;5035486;28;20045;-54
2021/08/05 07:59:06;;;;;;;11.60;7.85;;;;;;;42.17;18.32;94115.38;5034985;28;20049;-54
2021/08/05 08:01:33;;;;;;;10.82;6.60;;;;;;;42.24;18.37;94121.63;5033398;28;20053;-51
2021/08/05 08:04:00;;;;;;;13.88;7.38;;;;;;;42.44;18.39;94119.41;5024712;28;20056;-52
2021/08/05 08:06:27;;;;;;;12.32;6.97;;;;;;;42.60;17.79;94114.41;5035118;28;20053;-54
2021/08/05 08:08:54;;;;;;;12.15;6.90;;;;;;;42.28;19.00;94105.66;5034813;28;20054;-54
2021/08/05 08:11:24;;;;;;;14.43;7.15;;;;;;;42.22;18.72;94108.41;5034822;28;20049;-52
2021/08/05 08:13:52;;;;;;;11.13;7.45;;;;;;;42.38;19.22;94104.16;5034115;28;20046;-53
2021/08/05 08:16:21;;;;;;;12.52;7.22;;;;;;;42.50;18.57;94094.69;5035018;28;20053;-52
2021/08/05 08:18:49;;;;;;;14.65;7.35;;;;;;;42.72;18.91;94091.94;5034889;28;20041;-56
2021/08/05 08:21:19;;;;;;;16.40;7.00;;;;;;;43.00;18.35;94086.41;5033521;28;20494;-56
2021/08/05 08:23:46;;;;;;;14.05;7.03;;;;;;;43.34;17.96;94086.31;5034145;28;20436;-54
2021/08/05 08:26:14;;;;;;;12.60;7.13;;;;;;;43.08;17.93;94090.13;5034867;28;20049;-53
2021/08/05 08:28:42;;;;;;;12.55;7.28;;;;;;;42.79;17.69;94083.16;5033129;28;20053;-54
2021/08/05 08:31:09;;;;;;;11.75;7.07;;;;;;;43.21;17.58;94069.59;5033556;28;20072;-53
2021/08/05 08:33:36;;;;;;;13.10;6.97;;;;;;;43.36;17.39;94070.78;5034684;28;20046;-54
2021/08/05 08:36:03;;;;;;;13.25;6.00;;;;;;;43.49;17.40;94075.00;5021905;28;20061;-59
2021/08/05 08:38:30;;;;;;;12.75;6.60;;;;;;;43.56;17.36;94068.94;5014339;28;20350;-52
2021/08/05 08:41:00;;;;;;;12.10;6.68;;;;;;;43.34;17.33;94069.81;5016447;28;20045;-57
2021/08/05 08:43:28;;;;;;;;;;;;;;;43.46;16.96;94062.22;5033682;28;20052;-58
2021/08/05 08:45:56;;;;;;;11.13;6.70;;;;;;;43.83;16.96;94059.81;5017184;28;20370;-53
2021/08/05 08:48:28;;;;;;;9.68;6.63;;;;;;;43.74;16.88;94054.63;5033643;28;20066;-59
2021/08/05 08:50:59;;;;;;;14.20;6.88;;;;;;;43.65;16.94;94054.88;5033987;28;20052;-57
2021/08/05 08:53:29;;;;;;;10.48;6.32;;;;;;;44.06;16.65;94056.91;5023918;28;20049;-55
2021/08/05 08:55:57;;;;;;;10.75;6.60;;;;;;;44.22;16.07;94050.53;5014077;28;20041;-56
2021/08/05 08:58:24;;;;;;;13.32;6.80;;;;;;;44.06;15.98;94045.91;5014526;28;20042;-56
2021/08/05 09:00:51;;;;;;;13.32;7.03;;;;;;;44.10;15.56;94043.63;5014585;28;20046;-54
2021/08/05 09:03:20;;;;;;;13.85;7.50;;;;;;;44.07;15.21;94050.13;5034135;28;20356;-56
2021/08/05 09:05:47;;;;;;;12.63;7.97;;;;;;;43.96;15.71;94051.69;5033058;28;20063;-56
2021/08/05 09:08:14;;;;;;;13.65;7.60;;;;;;;44.15;15.27;94040.84;5033215;28;20041;-57
2021/08/05 09:10:42;;;;;;;12.32;7.03;;;;;;;44.20;15.43;94036.53;5034332;28;20515;-53
2021/08/05 09:13:09;;;;;;;14.43;7.47;;;;;;;44.03;15.77;94027.66;5036325;28;20048;-61
2021/08/05 09:15:47;;;;;;;14.55;7.45;;;;;;;44.03;15.80;94024.91;5038081;28;20056;-59
2021/08/05 09:18:31;;;;;;;11.35;6.60;;;;;;;44.04;15.74;94020.88;5038222;28;20049;-61
2021/08/05 09:21:12;;;;;;;14.15;8.15;;;;;;;44.07;15.69;94006.09;5036301;28;20056;-55
2021/08/05 09:24:01;;;;;;;;;;;;;;;44.33;15.65;94003.63;5038030;28;20368;-56
2021/08/05 09:26:46;;;;;;;12.63;7.60;;;;;;;44.37;15.14;94001.34;5037932;28;19913;-58
2021/08/05 09:29:22;;;;;;;11.60;7.38;;;;;;;44.34;15.29;94007.88;5038116;28;20053;-61
2021/08/05 09:31:54;;;;;;;14.57;8.38;;;;;;;44.02;15.40;94001.38;5036805;28;20045;-56
2021/08/05 09:34:33;;;;;;;18.63;10.63;;;;;;;44.50;15.03;94006.22;5037669;28;20056;-58
2021/08/05 09:37:06;;;;;;;15.93;11.50;;;;;;;44.23;15.18;93991.44;5037136;28;20065;-57
2021/08/05 09:39:38;;;;;;;18.70;9.68;;;;;;;44.35;15.08;93992.09;5037729;28;20041;-61
2021/08/05 09:42:13;;;;;;;13.65;7.75;;;;;;;44.37;15.02;93978.56;5045332;23;20028;-54
2021/08/05 09:44:42;;;;;;;15.77;8.65;;;;;;;44.16;15.13;93975.50;5038574;28;20124;-54
2021/08/05 09:47:13;;;;;;;16.23;8.02;;;;;;;44.31;15.00;93981.38;5040197;28;20486;-58
2021/08/05 09:49:47;;;;;;;16.77;8.27;;;;;;;44.48;14.69;93973.69;5057604;28;20053;-53
2021/08/05 09:52:30;;;;;;;18.30;8.77;;;;;;;44.59;14.54;93973.59;5056799;28;20049;-57
2021/08/05 09:54:58;;;;;;;13.30;8.55;;;;;;;44.34;14.72;93968.56;5038678;28;20055;-55
2021/08/05 09:57:43;;;;;;;15.52;10.60;;;;;;;44.80;13.74;93954.56;5056557;28;20055;-54
2021/08/05 10:00:16;;;;;;;15.05;9.23;;;;;;;44.66;13.98;93961.22;5057363;28;20044;-57
2021/08/05 10:02:46;;;;;;;16.63;9.43;;;;;;;45.29;11.45;93948.25;5057220;28;20355;-58
2021/08/05 10:05:18;;;;;;;22.27;8.63;;;;;;;44.55;10.50;93931.81;5057045;28;20052;-54
2021/08/05 10:07:46;;;;;;;18.83;9.23;;;;;;;44.66;12.92;93933.69;5057028;28;20056;-59
2021/08/05 10:10:14;;;;;;;22.50;11.25;;;;;;;45.07;9.88;93922.41;5056702;28;20049;-56
2021/08/05 10:12:48;;;;;;;34.40;12.80;;;;;;;46.50;7.88;93910.16;5039136;28;20471;-57
2021/08/05 10:15:16;;;;;;;25.90;13.05;;;;;;;46.50;7.25;93896.31;5056760;28;20057;-61
2021/08/05 10:17:43;;;;;;;24.55;11.32;;;;;;;45.82;9.31;93921.63;5056615;28;20044;-56
2021/08/05 10:20:12;;;;;;;20.33;10.98;;;;;;;45.78;9.53;93915.63;5057293;28;20474;-58
2021/08/05 10:22:41;;;;;;;24.80;11.15;;;;;;;45.84;8.87;93910.78;5056782;28;20055;-59
2021/08/05 10:25:11;;;;;;;25.60;11.82;;;;;;;45.72;8.48;93899.16;5037842;28;20055;-55
2021/08/05 10:27:39;;;;;;;23.55;13.18;;;;;;;45.81;8.65;93895.28;5056972;28;20337;-59
2021/08/05 10:30:09;;;;;;;30.30;23.92;;;;;;;45.83;8.51;93892.00;5039064;28;20061;-59
2021/08/05 10:32:36;;;;;;;28.38;13.15;;;;;;;45.80;8.26;93891.00;5039144;28;20053;-56
2021/08/05 10:35:04;;;;;;;21.50;11.82;;;;;;;45.77;8.42;93884.53;5037479;28;20522;-58
2021/08/05 10:37:36;;;;;;;26.55;11.63;;;;;;;45.83;8.17;93886.47;5038783;28;20045;-57
2021/08/05 10:40:06;;;;;;;25.30;11.90;;;;;;;46.54;7.94;93877.41;5056568;28;20049;-60
2021/08/05 10:42:33;;;;;;;28.92;10.23;;;;;;;46.07;8.03;93878.03;5027609;28;20054;-60
2021/08/05 10:45:01;;;;;;;20.17;10.50;;;;;;;46.31;7.65;93872.28;5002317;28;20058;-60
2021/08/05 10:47:29;;;;;;;18.50;9.98;;;;;;;46.31;7.64;93855.69;4996201;28;20446;-60
2021/08/05 10:50:03;;;;;;;22.10;11.65;;;;;;;46.27;7.95;93868.34;4996960;28;20057;-57
2021/08/05 10:52:41;;;;;;;17.55;10.00;;;;;;;45.78;7.90;93861.16;4985866;28;20045;-61
2021/08/05 10:55:34;;;;;;;20.13;10.18;;;;;;;45.60;7.60;93867.50;5015506;28;20380;-56
2021/08/05 10:58:16;;;;;;;26.92;9.73;;;;;;;45.68;7.90;93857.34;5015668;28;20054;-55
2021/08/05 11:00:49;;;;;;;16.50;9.95;;;;;;;46.29;7.41;93844.44;5017115;28;20052;-58
2021/08/05 11:03:32;;;;;;;16.98;9.20;;;;;;;46.19;7.37;93843.41;5014583;28;20061;-57
2021/08/05 11:06:00;;;;;;;22.17;10.30;;;;;;;46.21;8.10;93829.06;5015775;28;20049;-52
2021/08/05 11:08:29;;;;;;;19.05;10.68;;;;;;;46.31;7.79;93822.56;5016272;28;20054;-55
2021/08/05 11:11:34;;;;;;;23.55;10.95;;;;;;;46.35;7.62;93817.47;5000388;28;20473;-56
2021/08/05 11:14:01;;;;;;;16.88;11.20;;;;;;;46.40;7.76;93832.47;4972014;28;20461;-57
2021/08/05 11:16:54;;;;;;;30.73;12.20;;;;;;;46.31;7.64;93808.75;4972887;28;20476;-58
2021/08/05 11:19:24;;;;;;;20.90;10.25;;;;;;;46.82;7.12;93791.88;4992639;28;20050;-52
2021/08/05 11:21:51;;;;;;;24.50;10.80;;;;;;;46.63;6.91;93791.28;5004753;28;20046;-54
2021/08/05 11:24:46;;;;;;;16.88;9.07;;;;;;;45.86;7.26;93805.34;5014753;28;20050;-53
2021/08/05 11:27:18;;;;;;;16.48;7.25;;;;;;;46.17;6.63;93779.66;5015959;28;20041;-62
2021/08/05 11:29:45;;;;;;;17.83;7.07;;;;;;;45.70;6.75;93772.00;5015416;28;20050;-57
2021/08/05 11:32:39;;;;;;;15.13;7.18;;;;;;;46.55;6.58;93769.09;5014574;28;20046;-57
2021/08/05 11:35:08;;;;;;;18.63;7.70;;;;;;;46.65;6.71;93761.09;5014905;28;20053;-58
2021/08/05 11:37:36;;;;;;;20.65;7.63;;;;;;;46.38;7.19;93763.94;5015995;28;20049;-58
2021/08/05 11:40:07;;;;;;;17.02;6.75;;;;;;;46.37;6.29;93742.34;5015475;28;20049;-58